Haikou, China
Current Conditions -  °F | °C
As of 5:00 AM on Friday 24 Oct 2014 (Local Time) from ZJHK Reporting Station
Clear Clear  
Wind Chill: 73°   Ceiling: Unl
Heat Index: 73°   Visibility: 4mi
Dew Point: 72°   Wind: 7mph
Humidity: 94%   Direction: 90°E
Pressure: 29.88"   Gusts: NA
Location:  20.05°N, 110.32°E
Report Text: ZJHK 232100Z 09003MPS 7000 NSC 23/22 Q1012 NOSIG
Loading
Personal Weather Stations






























Interactive Weather Map
Tropical Storm Tracking
New forecast layout! Learn more

10-Day Weather Forecast

Advertisements
Track Severe Weather on mobile